Williamsburg, Virginia
Current Conditions -  °F | °C
As of 11:55 AM on Saturday 20 Dec 2014 (Local Time) from KJGG Reporting Station
Broken Clouds Broken Clouds  
Wind Chill: 39°   Ceiling: 11000
Heat Index: 39°   Visibility: 10mi
Dew Point: 28°   Wind: 0mph
Humidity: 65%   Direction: NA
Pressure: 30.31"   Gusts: NA
Location:  37.28°N, 76.71°W
Report Text: KJGG 201655Z AUTO 00000KT 10SM BKN110 04/M02 A3031 RMK AO1
Loading
Personal Weather Stations






























Interactive Weather Map New forecast layout! Learn more

10-Day Weather Forecast

Advertisements
Track Severe Weather on mobile